sensor_id;sensor_type;location;lat;lon;timestamp;P1;durP1;ratioP1;P2;durP2;ratioP2
19396;SDS011;9834;48.076;11.878;2022-08-03T00:01:41;1.23;;;1.13;;
19396;SDS011;9834;48.076;11.878;2022-08-03T00:04:09;1.80;;;1.70;;
19396;SDS011;9834;48.076;11.878;2022-08-03T00:06:37;1.57;;;1.23;;
19396;SDS011;9834;48.076;11.878;2022-08-03T00:09:04;2.00;;;1.23;;
19396;SDS011;9834;48.076;11.878;2022-08-03T00:11:31;2.20;;;1.37;;
19396;SDS011;9834;48.076;11.878;2022-08-03T00:13:59;1.30;;;1.23;;
19396;SDS011;9834;48.076;11.878;2022-08-03T00:16:27;1.67;;;1.40;;
19396;SDS011;9834;48.076;11.878;2022-08-03T00:18:54;1.30;;;1.20;;
19396;SDS011;9834;48.076;11.878;2022-08-03T00:21:21;2.03;;;1.00;;
19396;SDS011;9834;48.076;11.878;2022-08-03T00:23:48;1.10;;;1.03;;
19396;SDS011;9834;48.076;11.878;2022-08-03T00:26:15;1.30;;;1.20;;
19396;SDS011;9834;48.076;11.878;2022-08-03T00:28:42;0.90;;;0.90;;
19396;SDS011;9834;48.076;11.878;2022-08-03T00:31:09;1.50;;;1.40;;
19396;SDS011;9834;48.076;11.878;2022-08-03T00:33:38;1.43;;;1.33;;
19396;SDS011;9834;48.076;11.878;2022-08-03T00:36:05;1.97;;;1.00;;
19396;SDS011;9834;48.076;11.878;2022-08-03T00:38:32;2.00;;;1.50;;
19396;SDS011;9834;48.076;11.878;2022-08-03T00:40:59;1.77;;;1.53;;
19396;SDS011;9834;48.076;11.878;2022-08-03T00:43:26;1.20;;;1.10;;
19396;SDS011;9834;48.076;11.878;2022-08-03T00:45:53;1.33;;;1.23;;
19396;SDS011;9834;48.076;11.878;2022-08-03T00:48:21;1.73;;;1.33;;
19396;SDS011;9834;48.076;11.878;2022-08-03T00:50:50;1.40;;;1.30;;
19396;SDS011;9834;48.076;11.878;2022-08-03T00:53:19;1.43;;;1.30;;
19396;SDS011;9834;48.076;11.878;2022-08-03T00:55:46;1.00;;;1.00;;
19396;SDS011;9834;48.076;11.878;2022-08-03T00:58:13;2.33;;;1.40;;
19396;SDS011;9834;48.076;11.878;2022-08-03T01:00:40;1.30;;;1.20;;
19396;SDS011;9834;48.076;11.878;2022-08-03T01:03:07;2.30;;;1.70;;
19396;SDS011;9834;48.076;11.878;2022-08-03T01:05:37;1.70;;;1.60;;
19396;SDS011;9834;48.076;11.878;2022-08-03T01:08:14;1.67;;;1.20;;
19396;SDS011;9834;48.076;11.878;2022-08-03T01:10:49;0.93;;;0.83;;
19396;SDS011;9834;48.076;11.878;2022-08-03T01:13:33;1.47;;;1.30;;
19396;SDS011;9834;48.076;11.878;2022-08-03T01:16:07;1.63;;;1.53;;
19396;SDS011;9834;48.076;11.878;2022-08-03T01:18:40;1.33;;;1.23;;
19396;SDS011;9834;48.076;11.878;2022-08-03T01:21:12;1.43;;;1.33;;
19396;SDS011;9834;48.076;11.878;2022-08-03T01:23:58;0.90;;;0.90;;
19396;SDS011;9834;48.076;11.878;2022-08-03T01:29:48;1.23;;;1.20;;
19396;SDS011;9834;48.076;11.878;2022-08-03T01:32:25;1.27;;;1.23;;
19396;SDS011;9834;48.076;11.878;2022-08-03T01:34:59;1.90;;;1.13;;
19396;SDS011;9834;48.076;11.878;2022-08-03T01:37:31;1.83;;;1.13;;
19396;SDS011;9834;48.076;11.878;2022-08-03T01:40:04;3.63;;;1.50;;
19396;SDS011;9834;48.076;11.878;2022-08-03T01:42:33;1.43;;;0.90;;
19396;SDS011;9834;48.076;11.878;2022-08-03T01:45:04;0.80;;;0.80;;
19396;SDS011;9834;48.076;11.878;2022-08-03T01:47:34;1.30;;;1.20;;
19396;SDS011;9834;48.076;11.878;2022-08-03T01:50:02;1.10;;;1.10;;
19396;SDS011;9834;48.076;11.878;2022-08-03T01:52:32;0.77;;;0.77;;
19396;SDS011;9834;48.076;11.878;2022-08-03T01:55:00;1.20;;;1.00;;
19396;SDS011;9834;48.076;11.878;2022-08-03T01:57:29;1.20;;;1.03;;
19396;SDS011;9834;48.076;11.878;2022-08-03T01:59:56;0.93;;;0.93;;
19396;SDS011;9834;48.076;11.878;2022-08-03T02:02:27;1.20;;;1.10;;
19396;SDS011;9834;48.076;11.878;2022-08-03T02:04:56;1.53;;;1.30;;
19396;SDS011;9834;48.076;11.878;2022-08-03T02:07:25;1.00;;;0.97;;
19396;SDS011;9834;48.076;11.878;2022-08-03T02:09:54;1.13;;;1.10;;
19396;SDS011;9834;48.076;11.878;2022-08-03T02:12:23;1.67;;;1.10;;
19396;SDS011;9834;48.076;11.878;2022-08-03T02:14:53;1.10;;;1.03;;
19396;SDS011;9834;48.076;11.878;2022-08-03T02:17:21;1.10;;;1.00;;
19396;SDS011;9834;48.076;11.878;2022-08-03T02:19:51;1.50;;;1.40;;
19396;SDS011;9834;48.076;11.878;2022-08-03T02:22:19;1.50;;;1.40;;
19396;SDS011;9834;48.076;11.878;2022-08-03T02:24:48;1.30;;;1.10;;
19396;SDS011;9834;48.076;11.878;2022-08-03T02:27:16;3.00;;;1.47;;
19396;SDS011;9834;48.076;11.878;2022-08-03T02:29:48;0.90;;;0.90;;
19396;SDS011;9834;48.076;11.878;2022-08-03T02:32:20;1.77;;;1.63;;
19396;SDS011;9834;48.076;11.878;2022-08-03T02:34:53;1.50;;;1.40;;
19396;SDS011;9834;48.076;11.878;2022-08-03T02:37:25;1.30;;;1.20;;
19396;SDS011;9834;48.076;11.878;2022-08-03T02:39:55;2.00;;;1.27;;
19396;SDS011;9834;48.076;11.878;2022-08-03T02:42:26;1.50;;;1.40;;
19396;SDS011;9834;48.076;11.878;2022-08-03T02:44:55;2.53;;;1.17;;
19396;SDS011;9834;48.076;11.878;2022-08-03T02:47:25;1.50;;;1.40;;
19396;SDS011;9834;48.076;11.878;2022-08-03T02:49:56;1.30;;;1.20;;
19396;SDS011;9834;48.076;11.878;2022-08-03T02:52:27;1.30;;;1.13;;
19396;SDS011;9834;48.076;11.878;2022-08-03T02:54:56;3.33;;;1.40;;
19396;SDS011;9834;48.076;11.878;2022-08-03T02:57:26;1.33;;;1.20;;
19396;SDS011;9834;48.076;11.878;2022-08-03T02:59:55;1.37;;;1.27;;
19396;SDS011;9834;48.076;11.878;2022-08-03T03:02:23;1.33;;;1.23;;
19396;SDS011;9834;48.076;11.878;2022-08-03T03:04:51;1.57;;;1.47;;
19396;SDS011;9834;48.076;11.878;2022-08-03T03:07:21;1.60;;;1.37;;
19396;SDS011;9834;48.076;11.878;2022-08-03T03:09:48;2.63;;;1.63;;
19396;SDS011;9834;48.076;11.878;2022-08-03T03:12:16;1.63;;;1.53;;
19396;SDS011;9834;48.076;11.878;2022-08-03T03:14:44;2.47;;;1.20;;
19396;SDS011;9834;48.076;11.878;2022-08-03T03:17:11;1.27;;;1.17;;
19396;SDS011;9834;48.076;11.878;2022-08-03T03:19:41;0.93;;;0.87;;
19396;SDS011;9834;48.076;11.878;2022-08-03T03:22:11;1.47;;;1.37;;
19396;SDS011;9834;48.076;11.878;2022-08-03T03:24:41;1.10;;;1.10;;
19396;SDS011;9834;48.076;11.878;2022-08-03T03:27:12;1.40;;;1.30;;
19396;SDS011;9834;48.076;11.878;2022-08-03T03:29:40;1.27;;;1.17;;
19396;SDS011;9834;48.076;11.878;2022-08-03T03:32:07;1.87;;;1.47;;
19396;SDS011;9834;48.076;11.878;2022-08-03T03:34:35;1.50;;;1.37;;
19396;SDS011;9834;48.076;11.878;2022-08-03T03:37:02;1.67;;;1.03;;
19396;SDS011;9834;48.076;11.878;2022-08-03T03:39:30;1.80;;;1.40;;
19396;SDS011;9834;48.076;11.878;2022-08-03T03:41:58;1.50;;;1.40;;
19396;SDS011;9834;48.076;11.878;2022-08-03T03:44:26;1.40;;;1.30;;
19396;SDS011;9834;48.076;11.878;2022-08-03T03:46:54;1.10;;;1.00;;
19396;SDS011;9834;48.076;11.878;2022-08-03T03:49:21;1.40;;;1.30;;
19396;SDS011;9834;48.076;11.878;2022-08-03T03:51:50;1.53;;;1.40;;
19396;SDS011;9834;48.076;11.878;2022-08-03T03:54:18;1.20;;;1.20;;
19396;SDS011;9834;48.076;11.878;2022-08-03T03:56:45;1.33;;;1.23;;
19396;SDS011;9834;48.076;11.878;2022-08-03T03:59:14;2.13;;;1.17;;
19396;SDS011;9834;48.076;11.878;2022-08-03T04:01:41;1.40;;;1.30;;
19396;SDS011;9834;48.076;11.878;2022-08-03T04:04:08;2.40;;;1.47;;
19396;SDS011;9834;48.076;11.878;2022-08-03T04:06:52;1.07;;;0.97;;
19396;SDS011;9834;48.076;11.878;2022-08-03T04:09:51;1.60;;;1.37;;
19396;SDS011;9834;48.076;11.878;2022-08-03T04:12:38;1.57;;;1.30;;
19396;SDS011;9834;48.076;11.878;2022-08-03T04:15:08;5.60;;;1.50;;
19396;SDS011;9834;48.076;11.878;2022-08-03T04:17:55;1.67;;;1.57;;
19396;SDS011;9834;48.076;11.878;2022-08-03T04:23:57;1.20;;;1.10;;
19396;SDS011;9834;48.076;11.878;2022-08-03T04:26:27;1.70;;;1.60;;
19396;SDS011;9834;48.076;11.878;2022-08-03T04:29:00;2.33;;;1.87;;
19396;SDS011;9834;48.076;11.878;2022-08-03T04:31:30;3.10;;;1.87;;
19396;SDS011;9834;48.076;11.878;2022-08-03T04:34:02;3.30;;;2.10;;
19396;SDS011;9834;48.076;11.878;2022-08-03T04:36:31;6.57;;;1.97;;
19396;SDS011;9834;48.076;11.878;2022-08-03T04:39:06;3.23;;;1.97;;
19396;SDS011;9834;48.076;11.878;2022-08-03T04:41:38;2.00;;;1.80;;
19396;SDS011;9834;48.076;11.878;2022-08-03T04:44:07;1.73;;;1.63;;
19396;SDS011;9834;48.076;11.878;2022-08-03T04:46:39;2.60;;;2.30;;
19396;SDS011;9834;48.076;11.878;2022-08-03T04:49:08;2.07;;;1.87;;
19396;SDS011;9834;48.076;11.878;2022-08-03T04:51:37;2.80;;;1.87;;
19396;SDS011;9834;48.076;11.878;2022-08-03T04:54:10;2.30;;;2.10;;
19396;SDS011;9834;48.076;11.878;2022-08-03T04:56:38;2.33;;;2.13;;
19396;SDS011;9834;48.076;11.878;2022-08-03T04:59:05;2.60;;;2.40;;
19396;SDS011;9834;48.076;11.878;2022-08-03T05:01:32;3.03;;;2.17;;
19396;SDS011;9834;48.076;11.878;2022-08-03T05:04:01;4.47;;;2.67;;
19396;SDS011;9834;48.076;11.878;2022-08-03T05:06:28;2.47;;;2.27;;
19396;SDS011;9834;48.076;11.878;2022-08-03T05:08:55;2.57;;;2.37;;
19396;SDS011;9834;48.076;11.878;2022-08-03T05:11:22;3.33;;;2.30;;
19396;SDS011;9834;48.076;11.878;2022-08-03T05:13:49;3.20;;;2.33;;
19396;SDS011;9834;48.076;11.878;2022-08-03T05:16:16;3.07;;;2.27;;
19396;SDS011;9834;48.076;11.878;2022-08-03T05:18:43;1.70;;;1.60;;
19396;SDS011;9834;48.076;11.878;2022-08-03T05:21:11;3.43;;;2.37;;
19396;SDS011;9834;48.076;11.878;2022-08-03T05:23:40;2.40;;;1.97;;
19396;SDS011;9834;48.076;11.878;2022-08-03T05:26:07;2.30;;;2.10;;
19396;SDS011;9834;48.076;11.878;2022-08-03T05:28:35;2.73;;;2.10;;
19396;SDS011;9834;48.076;11.878;2022-08-03T05:31:03;3.83;;;2.37;;
19396;SDS011;9834;48.076;11.878;2022-08-03T05:33:30;1.90;;;1.80;;
19396;SDS011;9834;48.076;11.878;2022-08-03T05:35:57;2.63;;;1.97;;
19396;SDS011;9834;48.076;11.878;2022-08-03T05:38:26;3.63;;;2.40;;
19396;SDS011;9834;48.076;11.878;2022-08-03T05:40:53;1.67;;;1.57;;
19396;SDS011;9834;48.076;11.878;2022-08-03T05:43:20;2.27;;;2.00;;
19396;SDS011;9834;48.076;11.878;2022-08-03T05:45:47;2.80;;;2.40;;
19396;SDS011;9834;48.076;11.878;2022-08-03T05:48:14;1.67;;;1.57;;
19396;SDS011;9834;48.076;11.878;2022-08-03T05:50:41;3.87;;;1.60;;
19396;SDS011;9834;48.076;11.878;2022-08-03T05:53:09;1.70;;;1.60;;
19396;SDS011;9834;48.076;11.878;2022-08-03T05:55:37;2.27;;;2.03;;
19396;SDS011;9834;48.076;11.878;2022-08-03T05:58:04;2.40;;;1.83;;
19396;SDS011;9834;48.076;11.878;2022-08-03T06:00:32;4.70;;;1.90;;
19396;SDS011;9834;48.076;11.878;2022-08-03T06:03:01;1.20;;;1.10;;
19396;SDS011;9834;48.076;11.878;2022-08-03T06:05:28;1.13;;;1.07;;
19396;SDS011;9834;48.076;11.878;2022-08-03T06:07:55;2.10;;;1.40;;
19396;SDS011;9834;48.076;11.878;2022-08-03T06:10:22;1.83;;;1.53;;
19396;SDS011;9834;48.076;11.878;2022-08-03T06:12:51;0.90;;;0.90;;
19396;SDS011;9834;48.076;11.878;2022-08-03T06:15:18;0.87;;;0.87;;
19396;SDS011;9834;48.076;11.878;2022-08-03T06:17:45;2.93;;;1.67;;
19396;SDS011;9834;48.076;11.878;2022-08-03T06:20:15;1.80;;;1.70;;
19396;SDS011;9834;48.076;11.878;2022-08-03T06:22:43;1.50;;;1.27;;
19396;SDS011;9834;48.076;11.878;2022-08-03T06:25:10;1.20;;;1.13;;
19396;SDS011;9834;48.076;11.878;2022-08-03T06:27:37;1.03;;;1.03;;
19396;SDS011;9834;48.076;11.878;2022-08-03T06:30:07;1.60;;;1.50;;
19396;SDS011;9834;48.076;11.878;2022-08-03T06:32:35;1.10;;;1.00;;
19396;SDS011;9834;48.076;11.878;2022-08-03T06:35:02;1.30;;;1.13;;
19396;SDS011;9834;48.076;11.878;2022-08-03T06:37:30;1.17;;;1.17;;
19396;SDS011;9834;48.076;11.878;2022-08-03T06:39:57;7.57;;;1.33;;
19396;SDS011;9834;48.076;11.878;2022-08-03T06:42:24;2.17;;;0.90;;
19396;SDS011;9834;48.076;11.878;2022-08-03T06:44:51;1.00;;;1.00;;
19396;SDS011;9834;48.076;11.878;2022-08-03T06:47:19;1.87;;;1.60;;
19396;SDS011;9834;48.076;11.878;2022-08-03T06:49:46;0.90;;;0.90;;
19396;SDS011;9834;48.076;11.878;2022-08-03T06:52:13;1.10;;;1.07;;
19396;SDS011;9834;48.076;11.878;2022-08-03T06:54:40;1.80;;;1.23;;
19396;SDS011;9834;48.076;11.878;2022-08-03T06:57:07;1.17;;;1.00;;
19396;SDS011;9834;48.076;11.878;2022-08-03T06:59:35;1.77;;;0.93;;
19396;SDS011;9834;48.076;11.878;2022-08-03T07:02:03;1.57;;;1.20;;
19396;SDS011;9834;48.076;11.878;2022-08-03T07:04:31;1.10;;;1.00;;
19396;SDS011;9834;48.076;11.878;2022-08-03T07:06:58;3.38;;;1.38;;
19396;SDS011;9834;48.076;11.878;2022-08-03T07:09:25;1.03;;;0.97;;
19396;SDS011;9834;48.076;11.878;2022-08-03T07:11:52;5.70;;;1.50;;
19396;SDS011;9834;48.076;11.878;2022-08-03T07:14:19;1.77;;;1.57;;
19396;SDS011;9834;48.076;11.878;2022-08-03T07:16:46;2.15;;;1.02;;
19396;SDS011;9834;48.076;11.878;2022-08-03T07:19:13;0.90;;;0.90;;
19396;SDS011;9834;48.076;11.878;2022-08-03T07:21:41;1.17;;;1.10;;
19396;SDS011;9834;48.076;11.878;2022-08-03T07:24:09;1.30;;;1.20;;
19396;SDS011;9834;48.076;11.878;2022-08-03T07:26:36;0.82;;;0.82;;
19396;SDS011;9834;48.076;11.878;2022-08-03T07:29:03;1.35;;;1.25;;
19396;SDS011;9834;48.076;11.878;2022-08-03T07:31:30;1.13;;;1.08;;
19396;SDS011;9834;48.076;11.878;2022-08-03T07:33:57;1.00;;;1.00;;
19396;SDS011;9834;48.076;11.878;2022-08-03T07:36:24;1.23;;;1.10;;
19396;SDS011;9834;48.076;11.878;2022-08-03T07:38:52;1.63;;;1.52;;
19396;SDS011;9834;48.076;11.878;2022-08-03T07:41:22;0.90;;;0.85;;
19396;SDS011;9834;48.076;11.878;2022-08-03T07:43:49;1.65;;;1.08;;
19396;SDS011;9834;48.076;11.878;2022-08-03T07:46:16;0.82;;;0.82;;
19396;SDS011;9834;48.076;11.878;2022-08-03T07:48:42;1.20;;;1.10;;
19396;SDS011;9834;48.076;11.878;2022-08-03T07:51:10;0.90;;;0.90;;
19396;SDS011;9834;48.076;11.878;2022-08-03T07:53:36;1.90;;;0.90;;
19396;SDS011;9834;48.076;11.878;2022-08-03T07:56:05;1.48;;;1.38;;
19396;SDS011;9834;48.076;11.878;2022-08-03T07:58:32;0.90;;;0.90;;
19396;SDS011;9834;48.076;11.878;2022-08-03T08:01:01;1.00;;;1.00;;
19396;SDS011;9834;48.076;11.878;2022-08-03T08:03:28;1.70;;;1.10;;
19396;SDS011;9834;48.076;11.878;2022-08-03T08:05:55;0.85;;;0.85;;
19396;SDS011;9834;48.076;11.878;2022-08-03T08:08:22;2.15;;;1.00;;
19396;SDS011;9834;48.076;11.878;2022-08-03T08:10:49;2.17;;;0.98;;
19396;SDS011;9834;48.076;11.878;2022-08-03T08:13:17;1.17;;;1.10;;
19396;SDS011;9834;48.076;11.878;2022-08-03T08:15:44;0.90;;;0.90;;
19396;SDS011;9834;48.076;11.878;2022-08-03T08:18:11;0.80;;;0.80;;
19396;SDS011;9834;48.076;11.878;2022-08-03T08:20:38;0.77;;;0.77;;
19396;SDS011;9834;48.076;11.878;2022-08-03T08:23:06;0.60;;;0.60;;
19396;SDS011;9834;48.076;11.878;2022-08-03T08:25:34;1.10;;;1.00;;
19396;SDS011;9834;48.076;11.878;2022-08-03T08:28:01;5.28;;;1.30;;
19396;SDS011;9834;48.076;11.878;2022-08-03T08:30:30;3.22;;;1.40;;
19396;SDS011;9834;48.076;11.878;2022-08-03T08:32:59;0.98;;;0.88;;
19396;SDS011;9834;48.076;11.878;2022-08-03T08:35:26;1.67;;;1.25;;
19396;SDS011;9834;48.076;11.878;2022-08-03T08:37:53;2.33;;;1.08;;
19396;SDS011;9834;48.076;11.878;2022-08-03T08:40:21;4.75;;;1.45;;
19396;SDS011;9834;48.076;11.878;2022-08-03T08:42:48;1.10;;;1.00;;
19396;SDS011;9834;48.076;11.878;2022-08-03T08:45:15;1.30;;;1.20;;
19396;SDS011;9834;48.076;11.878;2022-08-03T08:47:45;2.55;;;1.10;;
19396;SDS011;9834;48.076;11.878;2022-08-03T08:50:16;0.82;;;0.82;;
19396;SDS011;9834;48.076;11.878;2022-08-03T08:52:45;0.95;;;0.95;;
19396;SDS011;9834;48.076;11.878;2022-08-03T08:55:14;0.85;;;0.85;;
19396;SDS011;9834;48.076;11.878;2022-08-03T08:57:46;1.55;;;0.90;;
19396;SDS011;9834;48.076;11.878;2022-08-03T09:00:15;0.80;;;0.80;;
19396;SDS011;9834;48.076;11.878;2022-08-03T09:02:43;1.95;;;0.88;;
19396;SDS011;9834;48.076;11.878;2022-08-03T09:05:13;0.88;;;0.40;;
19396;SDS011;9834;48.076;11.878;2022-08-03T09:07:41;0.70;;;0.70;;
19396;SDS011;9834;48.076;11.878;2022-08-03T09:10:09;1.13;;;0.88;;
19396;SDS011;9834;48.076;11.878;2022-08-03T09:12:37;1.00;;;1.00;;
19396;SDS011;9834;48.076;11.878;2022-08-03T09:15:16;1.48;;;1.10;;
19396;SDS011;9834;48.076;11.878;2022-08-03T09:17:46;0.45;;;0.45;;
19396;SDS011;9834;48.076;11.878;2022-08-03T09:20:13;0.43;;;0.43;;
19396;SDS011;9834;48.076;11.878;2022-08-03T09:22:50;12.68;;;1.05;;
19396;SDS011;9834;48.076;11.878;2022-08-03T09:25:21;0.70;;;0.70;;
19396;SDS011;9834;48.076;11.878;2022-08-03T09:27:53;0.70;;;0.70;;
19396;SDS011;9834;48.076;11.878;2022-08-03T09:30:20;1.27;;;0.85;;
19396;SDS011;9834;48.076;11.878;2022-08-03T09:32:49;1.48;;;0.68;;
19396;SDS011;9834;48.076;11.878;2022-08-03T09:35:16;0.85;;;0.85;;
19396;SDS011;9834;48.076;11.878;2022-08-03T09:38:07;0.98;;;0.60;;
19396;SDS011;9834;48.076;11.878;2022-08-03T09:40:34;0.82;;;0.82;;
19396;SDS011;9834;48.076;11.878;2022-08-03T09:43:02;0.85;;;0.85;;
19396;SDS011;9834;48.076;11.878;2022-08-03T09:45:32;0.40;;;0.40;;
19396;SDS011;9834;48.076;11.878;2022-08-03T09:48:11;0.52;;;0.50;;
19396;SDS011;9834;48.076;11.878;2022-08-03T09:50:49;0.50;;;0.50;;
19396;SDS011;9834;48.076;11.878;2022-08-03T09:53:16;0.88;;;0.75;;
19396;SDS011;9834;48.076;11.878;2022-08-03T09:55:51;0.88;;;0.88;;
19396;SDS011;9834;48.076;11.878;2022-08-03T09:58:19;0.82;;;0.82;;
19396;SDS011;9834;48.076;11.878;2022-08-03T10:00:51;0.68;;;0.40;;
19396;SDS011;9834;48.076;11.878;2022-08-03T10:03:21;0.63;;;0.63;;
19396;SDS011;9834;48.076;11.878;2022-08-03T10:05:48;0.50;;;0.50;;
19396;SDS011;9834;48.076;11.878;2022-08-03T10:08:16;0.80;;;0.80;;
19396;SDS011;9834;48.076;11.878;2022-08-03T10:10:45;0.65;;;0.65;;
19396;SDS011;9834;48.076;11.878;2022-08-03T10:13:13;0.68;;;0.68;;
19396;SDS011;9834;48.076;11.878;2022-08-03T10:15:42;0.60;;;0.60;;
19396;SDS011;9834;48.076;11.878;2022-08-03T10:18:09;0.95;;;0.60;;
19396;SDS011;9834;48.076;11.878;2022-08-03T10:20:40;1.15;;;0.57;;
19396;SDS011;9834;48.076;11.878;2022-08-03T10:23:10;0.57;;;0.57;;
19396;SDS011;9834;48.076;11.878;2022-08-03T10:25:40;0.70;;;0.60;;
19396;SDS011;9834;48.076;11.878;2022-08-03T10:28:09;0.50;;;0.50;;
19396;SDS011;9834;48.076;11.878;2022-08-03T10:30:43;0.60;;;0.60;;
19396;SDS011;9834;48.076;11.878;2022-08-03T10:33:14;4.30;;;0.68;;
19396;SDS011;9834;48.076;11.878;2022-08-03T10:35:46;1.58;;;0.60;;
19396;SDS011;9834;48.076;11.878;2022-08-03T10:38:18;0.93;;;0.88;;
19396;SDS011;9834;48.076;11.878;2022-08-03T10:40:47;1.08;;;1.08;;
19396;SDS011;9834;48.076;11.878;2022-08-03T10:43:19;1.25;;;0.65;;
19396;SDS011;9834;48.076;11.878;2022-08-03T10:45:47;0.82;;;0.82;;
19396;SDS011;9834;48.076;11.878;2022-08-03T10:48:14;0.45;;;0.45;;
19396;SDS011;9834;48.076;11.878;2022-08-03T10:50:42;0.55;;;0.55;;
19396;SDS011;9834;48.076;11.878;2022-08-03T10:53:12;0.47;;;0.47;;
19396;SDS011;9834;48.076;11.878;2022-08-03T10:55:40;0.65;;;0.55;;
19396;SDS011;9834;48.076;11.878;2022-08-03T11:01:17;1.23;;;0.57;;
19396;SDS011;9834;48.076;11.878;2022-08-03T11:06:41;1.23;;;0.60;;
19396;SDS011;9834;48.076;11.878;2022-08-03T11:09:17;0.60;;;0.60;;
19396;SDS011;9834;48.076;11.878;2022-08-03T11:11:45;0.45;;;0.45;;
19396;SDS011;9834;48.076;11.878;2022-08-03T11:14:14;0.95;;;0.85;;
19396;SDS011;9834;48.076;11.878;2022-08-03T11:16:43;2.03;;;0.70;;
19396;SDS011;9834;48.076;11.878;2022-08-03T11:19:12;0.50;;;0.50;;
19396;SDS011;9834;48.076;11.878;2022-08-03T11:21:57;0.70;;;0.70;;
19396;SDS011;9834;48.076;11.878;2022-08-03T11:27:28;0.60;;;0.60;;
19396;SDS011;9834;48.076;11.878;2022-08-03T11:29:58;0.50;;;0.50;;
19396;SDS011;9834;48.076;11.878;2022-08-03T11:35:26;1.05;;;0.80;;
19396;SDS011;9834;48.076;11.878;2022-08-03T11:38:01;0.70;;;0.70;;
19396;SDS011;9834;48.076;11.878;2022-08-03T11:40:34;0.60;;;0.60;;
19396;SDS011;9834;48.076;11.878;2022-08-03T11:43:06;0.63;;;0.63;;
19396;SDS011;9834;48.076;11.878;2022-08-03T11:45:34;0.77;;;0.77;;
19396;SDS011;9834;48.076;11.878;2022-08-03T11:48:11;0.70;;;0.70;;
19396;SDS011;9834;48.076;11.878;2022-08-03T11:50:39;0.60;;;0.60;;
19396;SDS011;9834;48.076;11.878;2022-08-03T11:53:11;0.50;;;0.50;;
19396;SDS011;9834;48.076;11.878;2022-08-03T11:55:42;0.63;;;0.50;;
19396;SDS011;9834;48.076;11.878;2022-08-03T11:58:16;1.05;;;0.90;;
19396;SDS011;9834;48.076;11.878;2022-08-03T12:00:44;0.65;;;0.65;;
19396;SDS011;9834;48.076;11.878;2022-08-03T12:03:12;0.60;;;0.60;;
19396;SDS011;9834;48.076;11.878;2022-08-03T12:05:41;0.60;;;0.60;;
19396;SDS011;9834;48.076;11.878;2022-08-03T12:08:10;0.73;;;0.73;;
19396;SDS011;9834;48.076;11.878;2022-08-03T12:10:39;0.77;;;0.77;;
19396;SDS011;9834;48.076;11.878;2022-08-03T12:13:12;0.60;;;0.60;;
19396;SDS011;9834;48.076;11.878;2022-08-03T12:15:39;0.57;;;0.57;;
19396;SDS011;9834;48.076;11.878;2022-08-03T12:18:13;1.63;;;1.20;;
19396;SDS011;9834;48.076;11.878;2022-08-03T12:20:42;0.60;;;0.60;;
19396;SDS011;9834;48.076;11.878;2022-08-03T12:23:10;0.55;;;0.55;;
19396;SDS011;9834;48.076;11.878;2022-08-03T12:25:38;0.70;;;0.70;;
19396;SDS011;9834;48.076;11.878;2022-08-03T12:28:10;1.05;;;0.95;;
19396;SDS011;9834;48.076;11.878;2022-08-03T12:30:43;1.25;;;1.15;;
19396;SDS011;9834;48.076;11.878;2022-08-03T12:33:15;0.82;;;0.82;;
19396;SDS011;9834;48.076;11.878;2022-08-03T12:35:47;0.60;;;0.60;;
19396;SDS011;9834;48.076;11.878;2022-08-03T12:38:19;0.80;;;0.80;;
19396;SDS011;9834;48.076;11.878;2022-08-03T12:40:57;1.08;;;0.70;;
19396;SDS011;9834;48.076;11.878;2022-08-03T12:43:26;0.80;;;0.80;;
19396;SDS011;9834;48.076;11.878;2022-08-03T12:46:06;0.70;;;0.70;;
19396;SDS011;9834;48.076;11.878;2022-08-03T12:48:35;0.85;;;0.85;;
19396;SDS011;9834;48.076;11.878;2022-08-03T12:51:08;0.73;;;0.73;;
19396;SDS011;9834;48.076;11.878;2022-08-03T12:53:35;0.60;;;0.60;;
19396;SDS011;9834;48.076;11.878;2022-08-03T12:56:03;0.93;;;0.88;;
19396;SDS011;9834;48.076;11.878;2022-08-03T12:58:33;0.70;;;0.70;;
19396;SDS011;9834;48.076;11.878;2022-08-03T13:01:02;0.70;;;0.70;;
19396;SDS011;9834;48.076;11.878;2022-08-03T13:03:37;0.80;;;0.80;;
19396;SDS011;9834;48.076;11.878;2022-08-03T13:06:10;0.70;;;0.70;;
19396;SDS011;9834;48.076;11.878;2022-08-03T13:08:38;0.60;;;0.60;;
19396;SDS011;9834;48.076;11.878;2022-08-03T13:11:21;0.70;;;0.70;;
19396;SDS011;9834;48.076;11.878;2022-08-03T13:13:50;0.90;;;0.90;;
19396;SDS011;9834;48.076;11.878;2022-08-03T13:16:18;0.80;;;0.80;;
19396;SDS011;9834;48.076;11.878;2022-08-03T13:18:46;0.80;;;0.80;;
19396;SDS011;9834;48.076;11.878;2022-08-03T13:21:13;0.75;;;0.75;;
19396;SDS011;9834;48.076;11.878;2022-08-03T13:23:41;0.60;;;0.60;;
19396;SDS011;9834;48.076;11.878;2022-08-03T13:26:08;0.90;;;0.90;;
19396;SDS011;9834;48.076;11.878;2022-08-03T13:28:36;0.88;;;0.88;;
19396;SDS011;9834;48.076;11.878;2022-08-03T13:31:04;1.30;;;1.08;;
19396;SDS011;9834;48.076;11.878;2022-08-03T13:33:31;1.00;;;0.88;;
19396;SDS011;9834;48.076;11.878;2022-08-03T13:35:58;0.85;;;0.85;;
19396;SDS011;9834;48.076;11.878;2022-08-03T13:38:25;0.77;;;0.77;;
19396;SDS011;9834;48.076;11.878;2022-08-03T13:40:52;1.10;;;1.10;;
19396;SDS011;9834;48.076;11.878;2022-08-03T13:43:19;0.70;;;0.70;;
19396;SDS011;9834;48.076;11.878;2022-08-03T13:45:47;1.55;;;1.45;;
19396;SDS011;9834;48.076;11.878;2022-08-03T13:48:15;0.88;;;0.88;;
19396;SDS011;9834;48.076;11.878;2022-08-03T13:50:42;0.80;;;0.80;;
19396;SDS011;9834;48.076;11.878;2022-08-03T13:53:09;8.30;;;0.90;;
19396;SDS011;9834;48.076;11.878;2022-08-03T13:55:36;0.90;;;0.90;;
19396;SDS011;9834;48.076;11.878;2022-08-03T13:58:03;1.70;;;1.00;;
19396;SDS011;9834;48.076;11.878;2022-08-03T14:00:32;0.70;;;0.70;;
19396;SDS011;9834;48.076;11.878;2022-08-03T14:02:59;0.80;;;0.80;;
19396;SDS011;9834;48.076;11.878;2022-08-03T14:05:28;0.88;;;0.88;;
19396;SDS011;9834;48.076;11.878;2022-08-03T14:07:55;0.70;;;0.70;;
19396;SDS011;9834;48.076;11.878;2022-08-03T14:10:22;1.80;;;0.85;;
19396;SDS011;9834;48.076;11.878;2022-08-03T14:12:49;0.80;;;0.80;;
19396;SDS011;9834;48.076;11.878;2022-08-03T14:15:16;0.80;;;0.80;;
19396;SDS011;9834;48.076;11.878;2022-08-03T14:17:43;0.90;;;0.90;;
19396;SDS011;9834;48.076;11.878;2022-08-03T14:20:10;1.55;;;0.90;;
19396;SDS011;9834;48.076;11.878;2022-08-03T14:22:40;0.90;;;0.90;;
19396;SDS011;9834;48.076;11.878;2022-08-03T14:25:07;1.00;;;0.90;;
19396;SDS011;9834;48.076;11.878;2022-08-03T14:27:34;0.80;;;0.80;;
19396;SDS011;9834;48.076;11.878;2022-08-03T14:30:01;0.93;;;0.88;;
19396;SDS011;9834;48.076;11.878;2022-08-03T14:32:28;0.70;;;0.70;;
19396;SDS011;9834;48.076;11.878;2022-08-03T14:34:55;1.05;;;0.90;;
19396;SDS011;9834;48.076;11.878;2022-08-03T14:37:22;0.75;;;0.75;;
19396;SDS011;9834;48.076;11.878;2022-08-03T14:39:51;1.20;;;1.20;;
19396;SDS011;9834;48.076;11.878;2022-08-03T14:42:18;1.88;;;0.85;;
19396;SDS011;9834;48.076;11.878;2022-08-03T14:44:45;1.15;;;0.90;;
19396;SDS011;9834;48.076;11.878;2022-08-03T14:47:12;0.88;;;0.88;;
19396;SDS011;9834;48.076;11.878;2022-08-03T14:49:39;0.70;;;0.70;;
19396;SDS011;9834;48.076;11.878;2022-08-03T14:52:06;1.50;;;0.90;;
19396;SDS011;9834;48.076;11.878;2022-08-03T14:54:34;0.85;;;0.85;;
19396;SDS011;9834;48.076;11.878;2022-08-03T14:57:02;1.10;;;1.00;;
19396;SDS011;9834;48.076;11.878;2022-08-03T14:59:29;0.68;;;0.68;;
19396;SDS011;9834;48.076;11.878;2022-08-03T15:01:56;0.73;;;0.73;;
19396;SDS011;9834;48.076;11.878;2022-08-03T15:04:23;0.80;;;0.80;;
19396;SDS011;9834;48.076;11.878;2022-08-03T15:06:50;0.80;;;0.80;;
19396;SDS011;9834;48.076;11.878;2022-08-03T15:09:17;0.73;;;0.73;;
19396;SDS011;9834;48.076;11.878;2022-08-03T15:11:44;0.85;;;0.85;;
19396;SDS011;9834;48.076;11.878;2022-08-03T15:14:12;1.58;;;1.10;;
19396;SDS011;9834;48.076;11.878;2022-08-03T15:16:39;0.90;;;0.90;;
19396;SDS011;9834;48.076;11.878;2022-08-03T15:19:06;1.77;;;0.82;;